sensor_id;sensor_type;location;lat;lon;timestamp;P1;durP1;ratioP1;P2;durP2;ratioP2
49858;SDS011;35756;52.346;13.622;2023-06-14T00:01:09;4.30;;;3.05;;
49858;SDS011;35756;52.346;13.622;2023-06-14T00:03:34;3.63;;;2.75;;
49858;SDS011;35756;52.346;13.622;2023-06-14T00:05:59;4.40;;;2.85;;
49858;SDS011;35756;52.346;13.622;2023-06-14T00:08:25;6.28;;;3.17;;
49858;SDS011;35756;52.346;13.622;2023-06-14T00:10:50;4.65;;;2.85;;
49858;SDS011;35756;52.346;13.622;2023-06-14T00:13:16;4.55;;;2.92;;
49858;SDS011;35756;52.346;13.622;2023-06-14T00:15:41;4.10;;;3.20;;
49858;SDS011;35756;52.346;13.622;2023-06-14T00:18:07;5.13;;;3.10;;
49858;SDS011;35756;52.346;13.622;2023-06-14T00:20:34;3.50;;;2.97;;
49858;SDS011;35756;52.346;13.622;2023-06-14T00:23:00;4.25;;;2.80;;
49858;SDS011;35756;52.346;13.622;2023-06-14T00:25:25;4.20;;;2.90;;
49858;SDS011;35756;52.346;13.622;2023-06-14T00:27:51;4.10;;;3.38;;
49858;SDS011;35756;52.346;13.622;2023-06-14T00:30:17;3.85;;;3.20;;
49858;SDS011;35756;52.346;13.622;2023-06-14T00:32:43;4.82;;;2.90;;
49858;SDS011;35756;52.346;13.622;2023-06-14T00:35:09;3.75;;;2.92;;
49858;SDS011;35756;52.346;13.622;2023-06-14T00:37:34;5.38;;;3.45;;
49858;SDS011;35756;52.346;13.622;2023-06-14T00:39:59;4.88;;;3.53;;
49858;SDS011;35756;52.346;13.622;2023-06-14T00:42:25;4.43;;;3.63;;
49858;SDS011;35756;52.346;13.622;2023-06-14T00:44:51;4.75;;;3.33;;
49858;SDS011;35756;52.346;13.622;2023-06-14T00:47:16;5.50;;;3.70;;
49858;SDS011;35756;52.346;13.622;2023-06-14T00:49:41;4.20;;;3.00;;
49858;SDS011;35756;52.346;13.622;2023-06-14T00:52:07;4.00;;;3.45;;
49858;SDS011;35756;52.346;13.622;2023-06-14T00:54:32;5.32;;;3.53;;
49858;SDS011;35756;52.346;13.622;2023-06-14T00:56:58;4.57;;;3.72;;
49858;SDS011;35756;52.346;13.622;2023-06-14T00:59:23;5.95;;;3.80;;
49858;SDS011;35756;52.346;13.622;2023-06-14T01:01:48;7.93;;;3.70;;
49858;SDS011;35756;52.346;13.622;2023-06-14T01:04:13;7.18;;;4.50;;
49858;SDS011;35756;52.346;13.622;2023-06-14T01:09:23;6.53;;;4.55;;
49858;SDS011;35756;52.346;13.622;2023-06-14T01:11:50;6.20;;;3.72;;
49858;SDS011;35756;52.346;13.622;2023-06-14T01:14:22;5.53;;;4.55;;
49858;SDS011;35756;52.346;13.622;2023-06-14T01:16:48;7.40;;;5.03;;
49858;SDS011;35756;52.346;13.622;2023-06-14T01:19:18;8.07;;;5.55;;
49858;SDS011;35756;52.346;13.622;2023-06-14T01:21:44;5.30;;;4.35;;
49858;SDS011;35756;52.346;13.622;2023-06-14T01:24:09;9.48;;;4.32;;
49858;SDS011;35756;52.346;13.622;2023-06-14T01:26:35;4.35;;;3.55;;
49858;SDS011;35756;52.346;13.622;2023-06-14T01:29:02;6.50;;;4.13;;
49858;SDS011;35756;52.346;13.622;2023-06-14T01:31:28;5.03;;;3.78;;
49858;SDS011;35756;52.346;13.622;2023-06-14T01:33:54;5.30;;;3.92;;
49858;SDS011;35756;52.346;13.622;2023-06-14T01:36:19;8.35;;;4.40;;
49858;SDS011;35756;52.346;13.622;2023-06-14T01:38:46;6.10;;;4.45;;
49858;SDS011;35756;52.346;13.622;2023-06-14T01:41:13;5.40;;;3.95;;
49858;SDS011;35756;52.346;13.622;2023-06-14T01:43:40;4.57;;;3.42;;
49858;SDS011;35756;52.346;13.622;2023-06-14T01:46:06;9.02;;;4.22;;
49858;SDS011;35756;52.346;13.622;2023-06-14T01:48:33;7.25;;;4.30;;
49858;SDS011;35756;52.346;13.622;2023-06-14T01:50:59;8.38;;;4.40;;
49858;SDS011;35756;52.346;13.622;2023-06-14T01:53:24;6.45;;;4.10;;
49858;SDS011;35756;52.346;13.622;2023-06-14T01:55:50;6.20;;;4.28;;
49858;SDS011;35756;52.346;13.622;2023-06-14T01:58:15;7.30;;;4.32;;
49858;SDS011;35756;52.346;13.622;2023-06-14T02:00:41;8.00;;;4.18;;
49858;SDS011;35756;52.346;13.622;2023-06-14T02:03:08;6.22;;;4.40;;
49858;SDS011;35756;52.346;13.622;2023-06-14T02:05:33;7.55;;;4.97;;
49858;SDS011;35756;52.346;13.622;2023-06-14T02:07:59;6.97;;;4.63;;
49858;SDS011;35756;52.346;13.622;2023-06-14T02:10:24;6.88;;;4.72;;
49858;SDS011;35756;52.346;13.622;2023-06-14T02:12:50;6.45;;;4.40;;
49858;SDS011;35756;52.346;13.622;2023-06-14T02:15:15;7.05;;;4.60;;
49858;SDS011;35756;52.346;13.622;2023-06-14T02:17:44;4.93;;;4.18;;
49858;SDS011;35756;52.346;13.622;2023-06-14T02:20:10;5.53;;;4.28;;
49858;SDS011;35756;52.346;13.622;2023-06-14T02:22:35;6.78;;;4.97;;
49858;SDS011;35756;52.346;13.622;2023-06-14T02:25:01;5.85;;;4.15;;
49858;SDS011;35756;52.346;13.622;2023-06-14T02:27:26;7.47;;;4.80;;
49858;SDS011;35756;52.346;13.622;2023-06-14T02:29:51;7.43;;;4.57;;
49858;SDS011;35756;52.346;13.622;2023-06-14T02:32:16;6.43;;;4.53;;
49858;SDS011;35756;52.346;13.622;2023-06-14T02:34:42;7.20;;;4.70;;
49858;SDS011;35756;52.346;13.622;2023-06-14T02:37:07;10.77;;;5.28;;
49858;SDS011;35756;52.346;13.622;2023-06-14T02:39:33;7.82;;;5.07;;
49858;SDS011;35756;52.346;13.622;2023-06-14T02:41:58;6.20;;;4.63;;
49858;SDS011;35756;52.346;13.622;2023-06-14T02:44:26;8.02;;;5.50;;
49858;SDS011;35756;52.346;13.622;2023-06-14T02:46:53;7.80;;;4.97;;
49858;SDS011;35756;52.346;13.622;2023-06-14T02:49:19;10.05;;;5.32;;
49858;SDS011;35756;52.346;13.622;2023-06-14T02:51:44;6.93;;;5.50;;
49858;SDS011;35756;52.346;13.622;2023-06-14T02:54:10;6.75;;;4.53;;
49858;SDS011;35756;52.346;13.622;2023-06-14T02:56:36;7.03;;;4.72;;
49858;SDS011;35756;52.346;13.622;2023-06-14T02:59:01;6.05;;;4.95;;
49858;SDS011;35756;52.346;13.622;2023-06-14T03:01:27;7.35;;;5.00;;
49858;SDS011;35756;52.346;13.622;2023-06-14T03:03:58;7.18;;;5.40;;
49858;SDS011;35756;52.346;13.622;2023-06-14T03:06:24;6.40;;;5.47;;
49858;SDS011;35756;52.346;13.622;2023-06-14T03:08:49;7.65;;;5.57;;
49858;SDS011;35756;52.346;13.622;2023-06-14T03:11:15;6.90;;;5.60;;
49858;SDS011;35756;52.346;13.622;2023-06-14T03:13:41;9.85;;;5.95;;
49858;SDS011;35756;52.346;13.622;2023-06-14T03:16:08;10.35;;;5.97;;
49858;SDS011;35756;52.346;13.622;2023-06-14T03:18:34;8.77;;;5.90;;
49858;SDS011;35756;52.346;13.622;2023-06-14T03:21:00;8.50;;;6.55;;
49858;SDS011;35756;52.346;13.622;2023-06-14T03:23:26;7.25;;;5.43;;
49858;SDS011;35756;52.346;13.622;2023-06-14T03:25:52;8.48;;;5.50;;
49858;SDS011;35756;52.346;13.622;2023-06-14T03:28:17;8.80;;;6.13;;
49858;SDS011;35756;52.346;13.622;2023-06-14T03:30:42;6.72;;;5.55;;
49858;SDS011;35756;52.346;13.622;2023-06-14T03:33:08;8.27;;;5.85;;
49858;SDS011;35756;52.346;13.622;2023-06-14T03:35:33;8.07;;;6.05;;
49858;SDS011;35756;52.346;13.622;2023-06-14T03:37:58;11.82;;;5.95;;
49858;SDS011;35756;52.346;13.622;2023-06-14T03:40:24;12.60;;;5.50;;
49858;SDS011;35756;52.346;13.622;2023-06-14T03:42:51;10.25;;;5.68;;
49858;SDS011;35756;52.346;13.622;2023-06-14T03:45:17;7.07;;;5.55;;
49858;SDS011;35756;52.346;13.622;2023-06-14T03:47:42;10.57;;;6.18;;
49858;SDS011;35756;52.346;13.622;2023-06-14T03:50:07;10.38;;;6.30;;
49858;SDS011;35756;52.346;13.622;2023-06-14T03:52:33;8.88;;;6.10;;
49858;SDS011;35756;52.346;13.622;2023-06-14T03:54:58;11.38;;;6.45;;
49858;SDS011;35756;52.346;13.622;2023-06-14T03:57:25;7.70;;;5.40;;
49858;SDS011;35756;52.346;13.622;2023-06-14T03:59:50;7.25;;;6.05;;
49858;SDS011;35756;52.346;13.622;2023-06-14T04:02:15;9.48;;;6.15;;
49858;SDS011;35756;52.346;13.622;2023-06-14T04:04:41;10.55;;;6.25;;
49858;SDS011;35756;52.346;13.622;2023-06-14T04:07:09;9.80;;;5.97;;
49858;SDS011;35756;52.346;13.622;2023-06-14T04:09:35;9.38;;;6.18;;
49858;SDS011;35756;52.346;13.622;2023-06-14T04:12:00;7.30;;;5.38;;
49858;SDS011;35756;52.346;13.622;2023-06-14T04:14:25;6.70;;;5.53;;
49858;SDS011;35756;52.346;13.622;2023-06-14T04:16:50;7.35;;;5.97;;
49858;SDS011;35756;52.346;13.622;2023-06-14T04:19:16;7.65;;;5.78;;
49858;SDS011;35756;52.346;13.622;2023-06-14T04:21:41;9.20;;;6.15;;
49858;SDS011;35756;52.346;13.622;2023-06-14T04:24:07;7.97;;;6.95;;
49858;SDS011;35756;52.346;13.622;2023-06-14T04:26:37;8.98;;;7.65;;
49858;SDS011;35756;52.346;13.622;2023-06-14T04:29:04;10.85;;;8.75;;
49858;SDS011;35756;52.346;13.622;2023-06-14T04:31:30;11.95;;;9.73;;
49858;SDS011;35756;52.346;13.622;2023-06-14T04:33:58;9.55;;;8.10;;
49858;SDS011;35756;52.346;13.622;2023-06-14T04:36:24;11.00;;;8.75;;
49858;SDS011;35756;52.346;13.622;2023-06-14T04:38:51;11.50;;;10.30;;
49858;SDS011;35756;52.346;13.622;2023-06-14T04:41:19;10.02;;;9.07;;
49858;SDS011;35756;52.346;13.622;2023-06-14T04:43:45;9.85;;;7.40;;
49858;SDS011;35756;52.346;13.622;2023-06-14T04:46:13;10.70;;;7.72;;
49858;SDS011;35756;52.346;13.622;2023-06-14T04:48:39;7.30;;;6.50;;
49858;SDS011;35756;52.346;13.622;2023-06-14T04:51:08;9.10;;;7.45;;
49858;SDS011;35756;52.346;13.622;2023-06-14T04:53:34;9.38;;;8.35;;
49858;SDS011;35756;52.346;13.622;2023-06-14T04:56:00;10.00;;;6.95;;
49858;SDS011;35756;52.346;13.622;2023-06-14T04:58:25;8.88;;;7.20;;
49858;SDS011;35756;52.346;13.622;2023-06-14T05:00:51;8.10;;;7.20;;
49858;SDS011;35756;52.346;13.622;2023-06-14T05:03:16;9.68;;;6.82;;
49858;SDS011;35756;52.346;13.622;2023-06-14T05:05:43;10.48;;;6.18;;
49858;SDS011;35756;52.346;13.622;2023-06-14T05:08:08;8.43;;;6.68;;
49858;SDS011;35756;52.346;13.622;2023-06-14T05:10:34;8.05;;;7.25;;
49858;SDS011;35756;52.346;13.622;2023-06-14T05:13:01;8.15;;;7.35;;
49858;SDS011;35756;52.346;13.622;2023-06-14T05:15:26;9.68;;;7.45;;
49858;SDS011;35756;52.346;13.622;2023-06-14T05:17:52;8.77;;;7.88;;
49858;SDS011;35756;52.346;13.622;2023-06-14T05:20:20;9.55;;;8.45;;
49858;SDS011;35756;52.346;13.622;2023-06-14T05:22:47;11.43;;;9.05;;
49858;SDS011;35756;52.346;13.622;2023-06-14T05:25:15;8.57;;;7.20;;
49858;SDS011;35756;52.346;13.622;2023-06-14T05:27:40;7.57;;;6.85;;
49858;SDS011;35756;52.346;13.622;2023-06-14T05:30:06;10.52;;;8.05;;
49858;SDS011;35756;52.346;13.622;2023-06-14T05:32:33;8.60;;;7.45;;
49858;SDS011;35756;52.346;13.622;2023-06-14T05:34:58;9.63;;;7.40;;
49858;SDS011;35756;52.346;13.622;2023-06-14T05:37:23;8.23;;;6.18;;
49858;SDS011;35756;52.346;13.622;2023-06-14T05:39:49;9.43;;;7.13;;
49858;SDS011;35756;52.346;13.622;2023-06-14T05:42:14;8.13;;;7.25;;
49858;SDS011;35756;52.346;13.622;2023-06-14T05:44:39;12.77;;;6.70;;
49858;SDS011;35756;52.346;13.622;2023-06-14T05:47:05;7.55;;;6.75;;
49858;SDS011;35756;52.346;13.622;2023-06-14T05:49:30;7.82;;;7.00;;
49858;SDS011;35756;52.346;13.622;2023-06-14T05:51:55;15.10;;;7.30;;
49858;SDS011;35756;52.346;13.622;2023-06-14T05:54:21;8.30;;;6.47;;
49858;SDS011;35756;52.346;13.622;2023-06-14T05:56:46;9.32;;;6.88;;
49858;SDS011;35756;52.346;13.622;2023-06-14T05:59:11;8.45;;;5.80;;
49858;SDS011;35756;52.346;13.622;2023-06-14T06:01:37;6.43;;;5.45;;
49858;SDS011;35756;52.346;13.622;2023-06-14T06:04:02;8.02;;;6.20;;
49858;SDS011;35756;52.346;13.622;2023-06-14T06:06:27;8.98;;;6.15;;
49858;SDS011;35756;52.346;13.622;2023-06-14T06:08:53;8.02;;;6.22;;
49858;SDS011;35756;52.346;13.622;2023-06-14T06:11:19;11.30;;;6.32;;
49858;SDS011;35756;52.346;13.622;2023-06-14T06:13:44;9.25;;;6.47;;
49858;SDS011;35756;52.346;13.622;2023-06-14T06:16:09;8.10;;;6.82;;
49858;SDS011;35756;52.346;13.622;2023-06-14T06:18:35;8.18;;;6.80;;
49858;SDS011;35756;52.346;13.622;2023-06-14T06:21:00;9.23;;;6.63;;
49858;SDS011;35756;52.346;13.622;2023-06-14T06:23:26;8.00;;;6.88;;
49858;SDS011;35756;52.346;13.622;2023-06-14T06:25:51;8.95;;;6.70;;
49858;SDS011;35756;52.346;13.622;2023-06-14T06:28:16;11.15;;;7.00;;
49858;SDS011;35756;52.346;13.622;2023-06-14T06:30:42;7.43;;;6.22;;
49858;SDS011;35756;52.346;13.622;2023-06-14T06:33:07;7.80;;;6.63;;
49858;SDS011;35756;52.346;13.622;2023-06-14T06:35:33;9.05;;;6.55;;
49858;SDS011;35756;52.346;13.622;2023-06-14T06:37:58;7.97;;;6.30;;
49858;SDS011;35756;52.346;13.622;2023-06-14T06:40:24;7.90;;;6.15;;
49858;SDS011;35756;52.346;13.622;2023-06-14T06:42:49;13.57;;;7.60;;
49858;SDS011;35756;52.346;13.622;2023-06-14T06:45:15;8.40;;;6.72;;
49858;SDS011;35756;52.346;13.622;2023-06-14T06:47:40;7.65;;;6.72;;
49858;SDS011;35756;52.346;13.622;2023-06-14T06:50:05;9.90;;;6.30;;
49858;SDS011;35756;52.346;13.622;2023-06-14T06:52:32;9.70;;;6.80;;
49858;SDS011;35756;52.346;13.622;2023-06-14T06:54:57;9.52;;;7.10;;
49858;SDS011;35756;52.346;13.622;2023-06-14T06:57:23;8.50;;;7.03;;
49858;SDS011;35756;52.346;13.622;2023-06-14T06:59:48;9.27;;;6.97;;
49858;SDS011;35756;52.346;13.622;2023-06-14T07:02:14;8.55;;;6.53;;
49858;SDS011;35756;52.346;13.622;2023-06-14T07:04:40;10.63;;;6.70;;
49858;SDS011;35756;52.346;13.622;2023-06-14T07:07:06;10.95;;;7.20;;
49858;SDS011;35756;52.346;13.622;2023-06-14T07:09:31;11.15;;;7.00;;
49858;SDS011;35756;52.346;13.622;2023-06-14T07:11:56;7.82;;;5.68;;
49858;SDS011;35756;52.346;13.622;2023-06-14T07:14:22;12.13;;;6.30;;
49858;SDS011;35756;52.346;13.622;2023-06-14T07:16:47;9.88;;;6.35;;
49858;SDS011;35756;52.346;13.622;2023-06-14T07:19:14;7.30;;;6.07;;
49858;SDS011;35756;52.346;13.622;2023-06-14T07:21:39;9.73;;;6.03;;
49858;SDS011;35756;52.346;13.622;2023-06-14T07:24:05;10.02;;;6.68;;
49858;SDS011;35756;52.346;13.622;2023-06-14T07:26:31;8.05;;;5.85;;
49858;SDS011;35756;52.346;13.622;2023-06-14T07:28:56;13.07;;;6.35;;
49858;SDS011;35756;52.346;13.622;2023-06-14T07:31:22;9.43;;;6.25;;
49858;SDS011;35756;52.346;13.622;2023-06-14T07:33:47;7.13;;;5.95;;
49858;SDS011;35756;52.346;13.622;2023-06-14T07:36:12;9.70;;;6.18;;
49858;SDS011;35756;52.346;13.622;2023-06-14T07:38:37;7.35;;;5.65;;
49858;SDS011;35756;52.346;13.622;2023-06-14T07:41:05;6.10;;;5.32;;
49858;SDS011;35756;52.346;13.622;2023-06-14T07:43:30;7.22;;;5.53;;
49858;SDS011;35756;52.346;13.622;2023-06-14T07:45:55;5.97;;;5.30;;
49858;SDS011;35756;52.346;13.622;2023-06-14T07:48:21;7.05;;;4.85;;
49858;SDS011;35756;52.346;13.622;2023-06-14T07:50:47;6.90;;;5.57;;
49858;SDS011;35756;52.346;13.622;2023-06-14T07:53:12;9.98;;;5.47;;
49858;SDS011;35756;52.346;13.622;2023-06-14T07:55:37;9.25;;;5.55;;
49858;SDS011;35756;52.346;13.622;2023-06-14T07:58:03;7.40;;;5.65;;
49858;SDS011;35756;52.346;13.622;2023-06-14T08:00:28;6.07;;;5.03;;
49858;SDS011;35756;52.346;13.622;2023-06-14T08:02:54;13.32;;;5.88;;
49858;SDS011;35756;52.346;13.622;2023-06-14T08:05:23;8.63;;;5.60;;
49858;SDS011;35756;52.346;13.622;2023-06-14T08:07:49;8.35;;;5.35;;
49858;SDS011;35756;52.346;13.622;2023-06-14T08:10:14;7.53;;;5.13;;
49858;SDS011;35756;52.346;13.622;2023-06-14T08:12:39;11.60;;;5.10;;
49858;SDS011;35756;52.346;13.622;2023-06-14T08:15:05;12.15;;;5.15;;
49858;SDS011;35756;52.346;13.622;2023-06-14T08:17:30;6.68;;;4.50;;
49858;SDS011;35756;52.346;13.622;2023-06-14T08:19:56;8.70;;;5.15;;
49858;SDS011;35756;52.346;13.622;2023-06-14T08:22:22;8.07;;;5.22;;
49858;SDS011;35756;52.346;13.622;2023-06-14T08:24:49;7.03;;;4.82;;
49858;SDS011;35756;52.346;13.622;2023-06-14T08:27:14;7.53;;;5.25;;
49858;SDS011;35756;52.346;13.622;2023-06-14T08:29:40;11.50;;;4.50;;
49858;SDS011;35756;52.346;13.622;2023-06-14T08:32:06;8.95;;;4.90;;
49858;SDS011;35756;52.346;13.622;2023-06-14T08:34:31;11.05;;;4.72;;
49858;SDS011;35756;52.346;13.622;2023-06-14T08:36:57;6.05;;;4.53;;
49858;SDS011;35756;52.346;13.622;2023-06-14T08:39:22;6.68;;;4.45;;
49858;SDS011;35756;52.346;13.622;2023-06-14T08:41:47;7.00;;;4.47;;
49858;SDS011;35756;52.346;13.622;2023-06-14T08:44:16;14.80;;;4.88;;
49858;SDS011;35756;52.346;13.622;2023-06-14T08:46:42;7.80;;;5.00;;
49858;SDS011;35756;52.346;13.622;2023-06-14T08:49:07;5.68;;;3.90;;
49858;SDS011;35756;52.346;13.622;2023-06-14T08:51:33;5.82;;;4.03;;
49858;SDS011;35756;52.346;13.622;2023-06-14T08:54:01;6.65;;;4.10;;
49858;SDS011;35756;52.346;13.622;2023-06-14T08:56:29;6.50;;;4.30;;
49858;SDS011;35756;52.346;13.622;2023-06-14T08:58:55;11.35;;;4.03;;
49858;SDS011;35756;52.346;13.622;2023-06-14T09:01:21;6.43;;;4.00;;
49858;SDS011;35756;52.346;13.622;2023-06-14T09:03:48;5.40;;;3.75;;
49858;SDS011;35756;52.346;13.622;2023-06-14T09:06:14;6.82;;;4.07;;
49858;SDS011;35756;52.346;13.622;2023-06-14T09:08:41;6.43;;;3.80;;
49858;SDS011;35756;52.346;13.622;2023-06-14T09:11:08;6.18;;;3.90;;
49858;SDS011;35756;52.346;13.622;2023-06-14T09:13:34;6.50;;;3.92;;
49858;SDS011;35756;52.346;13.622;2023-06-14T09:15:59;5.65;;;4.00;;
49858;SDS011;35756;52.346;13.622;2023-06-14T09:18:41;8.50;;;4.60;;
49858;SDS011;35756;52.346;13.622;2023-06-14T09:21:09;5.00;;;3.83;;
49858;SDS011;35756;52.346;13.622;2023-06-14T09:23:38;12.15;;;3.88;;
49858;SDS011;35756;52.346;13.622;2023-06-14T09:26:11;7.45;;;4.15;;
49858;SDS011;35756;52.346;13.622;2023-06-14T09:28:41;7.75;;;3.70;;
49858;SDS011;35756;52.346;13.622;2023-06-14T09:31:07;5.25;;;3.33;;
49858;SDS011;35756;52.346;13.622;2023-06-14T09:33:34;6.57;;;3.80;;
49858;SDS011;35756;52.346;13.622;2023-06-14T09:36:00;6.00;;;3.22;;
49858;SDS011;35756;52.346;13.622;2023-06-14T09:38:25;5.38;;;3.00;;
49858;SDS011;35756;52.346;13.622;2023-06-14T09:40:51;4.00;;;3.20;;
49858;SDS011;35756;52.346;13.622;2023-06-14T09:43:16;6.43;;;3.25;;
49858;SDS011;35756;52.346;13.622;2023-06-14T09:45:43;5.70;;;3.53;;
49858;SDS011;35756;52.346;13.622;2023-06-14T09:48:10;6.45;;;3.60;;
49858;SDS011;35756;52.346;13.622;2023-06-14T09:50:36;5.55;;;2.97;;
49858;SDS011;35756;52.346;13.622;2023-06-14T09:53:09;5.13;;;2.85;;
49858;SDS011;35756;52.346;13.622;2023-06-14T09:55:35;4.30;;;2.85;;
49858;SDS011;35756;52.346;13.622;2023-06-14T09:58:04;8.98;;;3.42;;
49858;SDS011;35756;52.346;13.622;2023-06-14T10:00:31;4.80;;;3.53;;
49858;SDS011;35756;52.346;13.622;2023-06-14T10:02:59;6.57;;;3.65;;
49858;SDS011;35756;52.346;13.622;2023-06-14T10:05:26;6.80;;;3.22;;
49858;SDS011;35756;52.346;13.622;2023-06-14T10:07:56;5.63;;;2.85;;
49858;SDS011;35756;52.346;13.622;2023-06-14T10:10:25;8.43;;;3.05;;
49858;SDS011;35756;52.346;13.622;2023-06-14T10:12:50;4.43;;;2.88;;
49858;SDS011;35756;52.346;13.622;2023-06-14T10:15:38;6.70;;;2.42;;
49858;SDS011;35756;52.346;13.622;2023-06-14T10:18:25;5.35;;;3.00;;
49858;SDS011;35756;52.346;13.622;2023-06-14T10:23:53;5.82;;;2.95;;
49858;SDS011;35756;52.346;13.622;2023-06-14T10:26:21;4.63;;;3.05;;
49858;SDS011;35756;52.346;13.622;2023-06-14T10:28:57;5.00;;;2.85;;
49858;SDS011;35756;52.346;13.622;2023-06-14T10:31:42;6.50;;;2.78;;
49858;SDS011;35756;52.346;13.622;2023-06-14T10:34:12;5.03;;;2.95;;
49858;SDS011;35756;52.346;13.622;2023-06-14T10:36:50;4.40;;;3.10;;
49858;SDS011;35756;52.346;13.622;2023-06-14T10:39:26;4.35;;;3.00;;
49858;SDS011;35756;52.346;13.622;2023-06-14T10:41:52;4.57;;;2.70;;
49858;SDS011;35756;52.346;13.622;2023-06-14T10:46:46;3.88;;;3.00;;
49858;SDS011;35756;52.346;13.622;2023-06-14T10:49:12;3.80;;;2.90;;
49858;SDS011;35756;52.346;13.622;2023-06-14T10:51:42;9.23;;;3.10;;
49858;SDS011;35756;52.346;13.622;2023-06-14T10:54:14;7.82;;;3.28;;
49858;SDS011;35756;52.346;13.622;2023-06-14T10:56:49;6.78;;;3.00;;
49858;SDS011;35756;52.346;13.622;2023-06-14T10:59:16;5.35;;;3.33;;
49858;SDS011;35756;52.346;13.622;2023-06-14T11:04:47;4.82;;;3.20;;
49858;SDS011;35756;52.346;13.622;2023-06-14T11:10:26;8.05;;;3.50;;
49858;SDS011;35756;52.346;13.622;2023-06-14T11:13:02;4.72;;;3.13;;
49858;SDS011;35756;52.346;13.622;2023-06-14T11:15:28;8.77;;;3.53;;
49858;SDS011;35756;52.346;13.622;2023-06-14T11:17:56;6.35;;;3.53;;
49858;SDS011;35756;52.346;13.622;2023-06-14T11:20:24;5.55;;;3.40;;
49858;SDS011;35756;52.346;13.622;2023-06-14T11:22:51;5.55;;;3.28;;
49858;SDS011;35756;52.346;13.622;2023-06-14T11:25:16;6.07;;;2.83;;
49858;SDS011;35756;52.346;13.622;2023-06-14T11:27:42;7.30;;;3.28;;
49858;SDS011;35756;52.346;13.622;2023-06-14T11:30:08;7.25;;;3.85;;
49858;SDS011;35756;52.346;13.622;2023-06-14T11:32:39;6.15;;;3.30;;
49858;SDS011;35756;52.346;13.622;2023-06-14T11:35:05;7.35;;;3.60;;
49858;SDS011;35756;52.346;13.622;2023-06-14T11:37:31;5.55;;;3.10;;
49858;SDS011;35756;52.346;13.622;2023-06-14T11:40:00;6.55;;;3.65;;
49858;SDS011;35756;52.346;13.622;2023-06-14T11:42:26;6.57;;;3.35;;
49858;SDS011;35756;52.346;13.622;2023-06-14T11:44:52;5.50;;;3.65;;
49858;SDS011;35756;52.346;13.622;2023-06-14T11:47:18;5.60;;;3.33;;
49858;SDS011;35756;52.346;13.622;2023-06-14T11:49:43;7.07;;;3.85;;
49858;SDS011;35756;52.346;13.622;2023-06-14T11:52:08;4.05;;;3.20;;
49858;SDS011;35756;52.346;13.622;2023-06-14T11:54:35;4.43;;;3.10;;
49858;SDS011;35756;52.346;13.622;2023-06-14T11:57:00;7.10;;;3.47;;
49858;SDS011;35756;52.346;13.622;2023-06-14T11:59:25;6.07;;;3.17;;
49858;SDS011;35756;52.346;13.622;2023-06-14T12:01:52;6.30;;;3.38;;
49858;SDS011;35756;52.346;13.622;2023-06-14T12:04:26;6.35;;;3.35;;
49858;SDS011;35756;52.346;13.622;2023-06-14T12:09:18;5.20;;;2.90;;
49858;SDS011;35756;52.346;13.622;2023-06-14T12:11:44;6.25;;;3.42;;
49858;SDS011;35756;52.346;13.622;2023-06-14T12:14:09;8.57;;;3.25;;
49858;SDS011;35756;52.346;13.622;2023-06-14T12:16:36;7.38;;;3.72;;
49858;SDS011;35756;52.346;13.622;2023-06-14T12:19:11;8.32;;;3.10;;
49858;SDS011;35756;52.346;13.622;2023-06-14T12:21:38;6.53;;;2.92;;
49858;SDS011;35756;52.346;13.622;2023-06-14T12:24:05;5.03;;;3.28;;
49858;SDS011;35756;52.346;13.622;2023-06-14T12:26:31;5.25;;;3.17;;
49858;SDS011;35756;52.346;13.622;2023-06-14T12:28:57;6.57;;;3.35;;
49858;SDS011;35756;52.346;13.622;2023-06-14T12:31:22;6.47;;;3.28;;
49858;SDS011;35756;52.346;13.622;2023-06-14T12:33:47;6.88;;;3.90;;
49858;SDS011;35756;52.346;13.622;2023-06-14T12:36:16;6.75;;;3.38;;
49858;SDS011;35756;52.346;13.622;2023-06-14T12:38:42;7.00;;;3.30;;
49858;SDS011;35756;52.346;13.622;2023-06-14T12:41:07;3.70;;;2.83;;
49858;SDS011;35756;52.346;13.622;2023-06-14T12:43:33;4.95;;;3.33;;
49858;SDS011;35756;52.346;13.622;2023-06-14T12:45:58;4.53;;;3.00;;
49858;SDS011;35756;52.346;13.622;2023-06-14T12:48:24;9.23;;;3.67;;
49858;SDS011;35756;52.346;13.622;2023-06-14T12:50:49;6.75;;;3.40;;
49858;SDS011;35756;52.346;13.622;2023-06-14T12:53:14;8.88;;;3.45;;
49858;SDS011;35756;52.346;13.622;2023-06-14T12:55:40;7.60;;;3.30;;
49858;SDS011;35756;52.346;13.622;2023-06-14T12:58:05;6.85;;;2.88;;
49858;SDS011;35756;52.346;13.622;2023-06-14T13:00:30;5.28;;;3.00;;
49858;SDS011;35756;52.346;13.622;2023-06-14T13:02:56;6.95;;;3.55;;
49858;SDS011;35756;52.346;13.622;2023-06-14T13:05:22;4.90;;;3.33;;
49858;SDS011;35756;52.346;13.622;2023-06-14T13:07:47;8.35;;;3.40;;
49858;SDS011;35756;52.346;13.622;2023-06-14T13:10:12;6.30;;;3.75;;
49858;SDS011;35756;52.346;13.622;2023-06-14T13:12:38;6.10;;;3.10;;
49858;SDS011;35756;52.346;13.622;2023-06-14T13:15:03;6.10;;;3.08;;
49858;SDS011;35756;52.346;13.622;2023-06-14T13:17:29;9.15;;;3.38;;
49858;SDS011;35756;52.346;13.622;2023-06-14T13:19:54;4.80;;;2.90;;
49858;SDS011;35756;52.346;13.622;2023-06-14T13:22:19;5.13;;;3.30;;
49858;SDS011;35756;52.346;13.622;2023-06-14T13:24:45;8.30;;;3.08;;
49858;SDS011;35756;52.346;13.622;2023-06-14T13:27:10;6.90;;;3.40;;
49858;SDS011;35756;52.346;13.622;2023-06-14T13:29:35;9.50;;;3.35;;
49858;SDS011;35756;52.346;13.622;2023-06-14T13:32:01;7.72;;;3.30;;
49858;SDS011;35756;52.346;13.622;2023-06-14T13:34:27;4.95;;;2.97;;
49858;SDS011;35756;52.346;13.622;2023-06-14T13:36:52;7.68;;;3.35;;
49858;SDS011;35756;52.346;13.622;2023-06-14T13:39:18;4.53;;;3.08;;
49858;SDS011;35756;52.346;13.622;2023-06-14T13:41:43;5.75;;;3.03;;
49858;SDS011;35756;52.346;13.622;2023-06-14T13:44:09;4.68;;;3.00;;
49858;SDS011;35756;52.346;13.622;2023-06-14T13:46:38;4.80;;;3.50;;
49858;SDS011;35756;52.346;13.622;2023-06-14T13:49:04;8.10;;;3.47;;
49858;SDS011;35756;52.346;13.622;2023-06-14T13:51:30;8.27;;;3.20;;
49858;SDS011;35756;52.346;13.622;2023-06-14T13:53:55;5.60;;;2.95;;
49858;SDS011;35756;52.346;13.622;2023-06-14T13:56:20;4.90;;;3.03;;
49858;SDS011;35756;52.346;13.622;2023-06-14T13:58:49;5.53;;;3.00;;
49858;SDS011;35756;52.346;13.622;2023-06-14T14:01:14;6.25;;;3.00;;
49858;SDS011;35756;52.346;13.622;2023-06-14T14:03:40;3.92;;;3.00;;
49858;SDS011;35756;52.346;13.622;2023-06-14T14:06:05;7.85;;;3.50;;
49858;SDS011;35756;52.346;13.622;2023-06-14T14:08:32;4.88;;;3.03;;
49858;SDS011;35756;52.346;13.622;2023-06-14T14:10:57;5.05;;;2.80;;
49858;SDS011;35756;52.346;13.622;2023-06-14T14:13:22;6.00;;;2.88;;
49858;SDS011;35756;52.346;13.622;2023-06-14T14:15:47;5.68;;;3.10;;
49858;SDS011;35756;52.346;13.622;2023-06-14T14:18:14;9.32;;;3.50;;
49858;SDS011;35756;52.346;13.622;2023-06-14T14:20:40;5.30;;;2.90;;
49858;SDS011;35756;52.346;13.622;2023-06-14T14:23:05;9.40;;;3.15;;
49858;SDS011;35756;52.346;13.622;2023-06-14T14:25:30;4.50;;;3.17;;
49858;SDS011;35756;52.346;13.622;2023-06-14T14:27:56;4.75;;;3.20;;
49858;SDS011;35756;52.346;13.622;2023-06-14T14:30:21;6.00;;;3.05;;
49858;SDS011;35756;52.346;13.622;2023-06-14T14:32:48;7.30;;;3.33;;
49858;SDS011;35756;52.346;13.622;2023-06-14T14:35:14;6.38;;;3.20;;
49858;SDS011;35756;52.346;13.622;2023-06-14T14:37:40;8.63;;;3.15;;
49858;SDS011;35756;52.346;13.622;2023-06-14T14:40:05;5.35;;;3.05;;
49858;SDS011;35756;52.346;13.622;2023-06-14T14:42:31;5.15;;;2.90;;
49858;SDS011;35756;52.346;13.622;2023-06-14T14:44:56;7.28;;;3.15;;